Time;durP1;ratioP1;P1;durP2;ratioP2;P2;SDS_P1;SDS_P2;PMS_P1;PMS_P2;Temp;Humidity;BMP_temperature;BMP_pressure;BME280_temperature;BME280_humidity;BME280_pressure;Samples;Min_cycle;Max_cycle;Signal;HPM_P1;HPM_P2
2023/01/02 00:02:01;;;;;;;17.13;6.13;;;9.70;99.90;;;;;;5048491;28;20029;-88
2023/01/02 00:04:26;;;;;;;15.93;6.50;;;9.70;99.90;;;;;;5047529;28;20549;-89
2023/01/02 00:06:52;;;;;;;13.55;6.65;;;9.70;99.90;;;;;;5053110;28;20405;-89
2023/01/02 00:09:18;;;;;;;14.13;6.38;;;9.70;99.90;;;;;;5031957;28;20047;-87
2023/01/02 00:11:44;;;;;;;13.90;6.95;;;9.70;99.90;;;;;;5044554;28;20047;-89
2023/01/02 00:14:10;;;;;;;15.38;7.32;;;9.70;99.90;;;;;;5043829;28;20033;-89
2023/01/02 00:16:36;;;;;;;16.00;7.40;;;9.80;99.90;;;;;;5045943;28;20521;-88
2023/01/02 00:19:01;;;;;;;15.68;6.70;;;9.90;99.90;;;;;;5030228;28;20045;-87
2023/01/02 00:21:27;;;;;;;12.88;6.85;;;9.90;99.90;;;;;;5012909;28;20068;-89
2023/01/02 00:23:53;;;;;;;14.02;7.22;;;9.90;99.90;;;;;;5046258;28;20083;-88
2023/01/02 00:26:18;;;;;;;13.57;7.50;;;9.10;99.90;;;;;;5026158;28;20124;-87
2023/01/02 00:28:44;;;;;;;12.77;6.90;;;9.90;99.90;;;;;;5026098;28;20051;-89
2023/01/02 00:31:12;;;;;;;14.18;7.10;;;10.00;99.90;;;;;;5026839;28;20402;-88
2023/01/02 00:33:38;;;;;;;12.75;6.63;;;10.00;99.90;;;;;;5014246;28;20079;-88
2023/01/02 00:36:06;;;;;;;14.82;7.30;;;10.00;99.90;;;;;;5030703;28;20076;-89
2023/01/02 00:38:32;;;;;;;13.23;6.90;;;10.00;99.90;;;;;;5029669;28;20041;-88
2023/01/02 00:40:58;;;;;;;13.57;7.05;;;10.00;99.90;;;;;;5045361;28;20397;-87
2023/01/02 00:43:24;;;;;;;12.60;6.88;;;10.10;99.90;;;;;;5028293;28;20037;-87
2023/01/02 00:45:49;;;;;;;14.15;7.28;;;10.00;99.90;;;;;;5045174;28;20037;-88
2023/01/02 00:48:15;;;;;;;12.75;6.57;;;10.00;99.90;;;;;;5013268;28;20060;-88
2023/01/02 00:50:41;;;;;;;16.77;7.25;;;10.00;99.90;;;;;;5045966;28;20295;-88
2023/01/02 00:53:06;;;;;;;13.25;7.10;;;10.10;99.90;;;;;;5045740;28;20124;-88
2023/01/02 00:55:32;;;;;;;11.32;5.78;;;10.10;99.90;;;;;;5044916;28;20075;-88
2023/01/02 00:57:58;;;;;;;12.25;6.10;;;10.10;99.90;;;;;;5025872;28;20052;-88
2023/01/02 01:00:23;;;;;;;11.23;5.80;;;10.10;99.90;;;;;;5028665;28;20554;-88
2023/01/02 01:02:49;;;;;;;11.75;5.38;;;10.10;99.90;;;;;;5042871;28;20037;-88
2023/01/02 01:05:15;;;;;;;13.07;5.28;;;10.10;99.90;;;;;;5042463;28;20045;-88
2023/01/02 01:07:41;;;;;;;10.45;4.85;;;10.20;99.90;;;;;;5027743;28;20040;-88
2023/01/02 01:10:06;;;;;;;11.43;5.28;;;10.10;99.90;;;;;;5032800;28;20041;-87
2023/01/02 01:12:32;;;;;;;12.55;5.78;;;10.20;99.90;;;;;;5029808;28;20051;-89
2023/01/02 01:14:58;;;;;;;14.40;5.47;;;10.10;99.90;;;;;;5010124;28;20065;-88
2023/01/02 01:17:24;;;;;;;11.57;4.68;;;10.10;99.90;;;;;;5043550;28;20151;-88
2023/01/02 01:19:49;;;;;;;9.93;4.68;;;10.20;99.90;;;;;;5027714;28;20050;-89
2023/01/02 01:22:15;;;;;;;9.77;4.55;;;10.10;99.90;;;;;;5027972;28;20413;-87
2023/01/02 01:24:41;;;;;;;13.27;5.18;;;10.20;99.90;;;;;;5011137;28;20032;-87
2023/01/02 01:27:06;;;;;;;10.30;4.60;;;10.10;99.90;;;;;;5024616;28;20041;-89
2023/01/02 01:29:32;;;;;;;10.63;4.78;;;10.10;99.90;;;;;;5009471;28;20049;-89
2023/01/02 01:31:58;;;;;;;11.95;5.45;;;10.20;99.90;;;;;;5027199;28;20059;-88
2023/01/02 01:34:24;;;;;;;15.05;6.18;;;10.20;99.90;;;;;;5027854;28;20571;-90
2023/01/02 01:36:49;;;;;;;12.73;6.47;;;10.20;99.90;;;;;;5060344;28;20442;-88
2023/01/02 01:39:15;;;;;;;12.35;6.38;;;10.20;99.90;;;;;;5027149;28;20044;-87
2023/01/02 01:41:41;;;;;;;14.85;7.00;;;10.20;99.90;;;;;;4994757;28;20073;-89
2023/01/02 01:44:45;;;;;;;13.95;7.25;;;10.20;99.90;;;;;;5027095;28;20056;-89
2023/01/02 01:47:36;;;;;;;13.23;7.80;;;10.30;99.90;;;;;;5043513;28;20045;-88
2023/01/02 01:50:11;;;;;;;13.75;7.85;;;10.30;99.90;;;;;;5041366;28;20047;-88
2023/01/02 01:52:44;;;;;;;15.77;8.38;;;10.30;99.90;;;;;;5043963;28;20266;-89
2023/01/02 01:55:21;;;;;;;15.52;9.10;;;10.30;99.90;;;;;;5043177;28;20123;-89
2023/01/02 01:57:59;;;;;;;16.30;9.82;;;10.20;99.90;;;;;;5042235;28;20049;-87
2023/01/02 02:00:26;;;;;;;15.38;10.10;;;10.20;99.90;;;;;;5044789;28;20543;-89
2023/01/02 02:02:57;;;;;;;16.55;10.77;;;10.30;99.90;;;;;;5042003;28;20049;-87
2023/01/02 02:05:26;;;;;;;18.80;10.38;;;10.30;99.90;;;;;;5045800;28;20047;-89
2023/01/02 02:08:46;;;;;;;16.30;9.60;;;10.30;99.90;;;;;;5047256;28;20102;-89
2023/01/02 02:11:13;;;;;;;17.73;10.02;;;10.30;99.90;;;;;;5020500;28;20525;-89
2023/01/02 02:13:39;;;;;;;19.02;10.02;;;10.30;99.90;;;;;;5042140;28;20124;-89
2023/01/02 02:16:05;;;;;;;15.90;10.23;;;10.30;99.90;;;;;;5018753;28;20034;-89
2023/01/02 02:18:45;;;;;;;18.17;9.60;;;10.40;99.90;;;;;;5045845;28;20033;-88
2023/01/02 02:21:27;;;;;;;18.38;9.50;;;10.40;99.90;;;;;;5058168;28;20402;-89
2023/01/02 02:24:11;;;;;;;20.23;9.57;;;10.40;99.90;;;;;;5057063;28;20449;-88
2023/01/02 02:27:27;;;;;;;16.95;9.48;;;10.40;99.90;;;;;;5024654;28;20398;-89
2023/01/02 02:30:14;;;;;;;16.60;9.18;;;10.40;99.90;;;;;;5013401;28;20052;-89
2023/01/02 02:32:43;;;;;;;14.00;8.52;;;10.40;99.90;;;;;;5027485;28;20041;-87
2023/01/02 02:35:48;;;;;;;16.80;8.45;;;10.40;99.90;;;;;;5026727;28;20056;-88
2023/01/02 02:38:48;;;;;;;14.85;8.65;;;10.40;99.90;;;;;;5040018;28;20049;-89
2023/01/02 02:41:33;;;;;;;15.73;8.40;;;11.70;99.90;;;;;;5023853;28;20131;-88
2023/01/02 02:44:34;;;;;;;15.55;7.85;;;10.40;99.90;;;;;;5044983;28;20033;-88
2023/01/02 02:47:06;;;;;;;15.68;8.30;;;10.40;99.90;;;;;;5041883;28;20048;-89
2023/01/02 02:50:13;;;;;;;14.70;8.23;;;10.40;99.90;;;;;;5025460;28;20040;-89
2023/01/02 02:52:53;;;;;;;15.85;8.50;;;10.50;99.90;;;;;;5023553;28;20044;-88
2023/01/02 02:55:31;;;;;;;14.60;8.60;;;10.50;99.90;;;;;;5059209;28;20410;-88
2023/01/02 02:57:59;;;;;;;14.40;7.88;;;10.50;99.90;;;;;;5060232;28;20490;-88
2023/01/02 03:00:25;;;;;;;15.45;7.70;;;10.50;99.90;;;;;;5026810;28;20152;-88
2023/01/02 03:02:50;;;;;;;13.63;8.13;;;10.50;99.90;;;;;;5043968;28;20243;-89
2023/01/02 03:05:31;;;;;;;14.15;8.43;;;10.50;99.90;;;;;;5048266;28;20143;-88
2023/01/02 03:08:39;;;;;;;14.20;8.50;;;10.50;99.90;;;;;;5048050;28;20095;-88
2023/01/02 03:11:05;;;;;;;16.33;9.13;;;10.50;99.90;;;;;;5044716;28;20041;-88
2023/01/02 03:13:53;;;;;;;16.20;8.95;;;10.50;99.90;;;;;;5030525;28;20059;-88
2023/01/02 03:16:39;;;;;;;14.32;8.65;;;10.50;99.90;;;;;;5047903;28;20033;-88
2023/01/02 03:19:34;;;;;;;17.38;8.77;;;10.60;99.90;;;;;;5044912;28;20188;-88
2023/01/02 03:22:10;;;;;;;14.63;8.38;;;10.60;99.90;;;;;;5030736;28;20060;-89
2023/01/02 03:24:38;;;;;;;15.48;9.30;;;10.60;99.90;;;;;;5045450;28;20448;-88
2023/01/02 03:27:19;;;;;;;16.83;8.32;;;10.50;99.90;;;;;;5029282;28;20055;-88
2023/01/02 03:29:54;;;;;;;14.23;8.30;;;10.60;99.90;;;;;;5029146;28;20048;-88
2023/01/02 03:32:24;;;;;;;14.05;7.20;;;10.60;99.90;;;;;;5031165;28;20124;-89
2023/01/02 03:34:51;;;;;;;16.10;8.48;;;10.60;99.90;;;;;;5043672;28;20440;-88
2023/01/02 03:37:24;;;;;;;15.65;8.48;;;10.60;99.90;;;;;;5013112;28;20744;-87
2023/01/02 03:39:56;;;;;;;15.45;8.60;;;10.60;99.90;;;;;;5046459;28;20418;-88
2023/01/02 03:42:44;;;;;;;17.42;9.05;;;10.60;99.90;;;;;;5029785;28;20053;-88
2023/01/02 03:45:35;;;;;;;22.20;9.88;;;10.60;99.90;;;;;;5047261;28;20049;-88
2023/01/02 03:48:20;;;;;;;21.27;10.07;;;10.60;99.90;;;;;;5045459;28;20041;-88
2023/01/02 03:50:52;;;;;;;18.77;9.70;;;10.60;99.90;;;;;;5045285;28;20037;-89
2023/01/02 03:53:19;;;;;;;20.03;10.13;;;10.70;99.90;;;;;;5047151;28;20071;-88
2023/01/02 03:55:56;;;;;;;17.58;9.70;;;10.70;99.90;;;;;;5025949;28;20346;-89
2023/01/02 03:58:43;;;;;;;19.35;10.18;;;10.60;99.90;;;;;;5031762;28;20037;-89
2023/01/02 04:01:15;;;;;;;19.60;10.30;;;10.70;99.90;;;;;;5045298;28;20633;-88
2023/01/02 04:03:48;;;;;;;23.30;10.35;;;10.70;99.90;;;;;;5029204;28;20073;-89
2023/01/02 04:06:18;;;;;;;21.02;10.52;;;10.70;99.90;;;;;;5044340;28;20094;-88
2023/01/02 04:08:54;;;;;;;19.35;10.48;;;10.70;99.90;;;;;;5026926;28;20037;-88
2023/01/02 04:11:22;;;;;;;17.98;9.93;;;10.70;99.90;;;;;;5045786;28;20051;-88
2023/01/02 04:13:54;;;;;;;18.83;10.75;;;10.70;99.90;;;;;;5028359;28;20049;-88
2023/01/02 04:16:26;;;;;;;18.90;10.68;;;10.70;99.90;;;;;;5044121;28;20097;-88
2023/01/02 04:19:13;;;;;;;19.23;10.73;;;10.70;99.90;;;;;;5041937;28;20043;-87
2023/01/02 04:21:40;;;;;;;18.88;10.38;;;10.70;99.90;;;;;;5044372;28;20049;-89
2023/01/02 04:24:14;;;;;;;20.45;10.50;;;10.70;99.90;;;;;;5045351;28;20039;-89
2023/01/02 04:26:55;;;;;;;18.27;10.02;;;10.70;99.90;;;;;;5044487;28;20076;-89
2023/01/02 04:29:21;;;;;;;20.83;10.43;;;10.70;99.90;;;;;;5043621;28;20045;-88
2023/01/02 04:31:52;;;;;;;20.75;10.52;;;10.70;99.90;;;;;;5030147;28;20441;-89
2023/01/02 04:34:20;;;;;;;20.10;10.02;;;10.70;99.90;;;;;;5030678;28;20144;-90
2023/01/02 04:36:46;;;;;;;19.08;10.25;;;10.70;99.90;;;;;;5045826;28;20124;-89
2023/01/02 04:39:12;;;;;;;19.38;10.82;;;10.70;99.90;;;;;;5030028;28;20124;-88
2023/01/02 04:41:38;;;;;;;19.70;10.73;;;10.70;99.90;;;;;;5045171;28;20501;-88
2023/01/02 04:44:04;;;;;;;20.00;10.30;;;10.70;99.90;;;;;;5045689;28;20115;-89
2023/01/02 04:46:30;;;;;;;19.67;9.50;;;10.70;99.90;;;;;;5045306;28;20048;-89
2023/01/02 04:48:56;;;;;;;17.33;10.50;;;10.70;99.90;;;;;;5011797;28;20445;-90
2023/01/02 04:51:22;;;;;;;17.27;8.70;;;10.80;99.90;;;;;;5028596;28;20048;-89
2023/01/02 04:53:51;;;;;;;16.63;9.00;;;10.80;99.90;;;;;;5042847;28;20110;-89
2023/01/02 04:56:18;;;;;;;16.85;8.40;;;10.80;99.90;;;;;;5029674;28;20058;-87
2023/01/02 04:58:44;;;;;;;15.40;8.18;;;10.80;99.90;;;;;;5029508;28;20589;-87
2023/01/02 05:01:13;;;;;;;16.80;8.82;;;10.80;99.90;;;;;;5043694;28;20647;-88
2023/01/02 05:03:39;;;;;;;14.45;7.43;;;10.70;99.90;;;;;;5013086;28;20043;-89
2023/01/02 05:06:06;;;;;;;13.70;7.55;;;10.80;99.90;;;;;;5044424;28;20693;-88
2023/01/02 05:08:31;;;;;;;13.82;7.40;;;10.70;99.90;;;;;;5027558;28;20083;-89
2023/01/02 05:11:03;;;;;;;16.17;7.90;;;10.70;99.90;;;;;;5023091;28;20045;-88
2023/01/02 05:13:29;;;;;;;14.25;7.50;;;10.70;99.90;;;;;;5029624;28;20049;-89
2023/01/02 05:15:55;;;;;;;14.07;8.38;;;10.80;99.90;;;;;;5028993;28;20068;-88
2023/01/02 05:18:21;;;;;;;13.98;8.00;;;;;;;;;;5044810;28;20051;-89
2023/01/02 05:20:47;;;;;;;16.75;7.60;;;10.70;99.90;;;;;;5025032;28;20053;-90
2023/01/02 05:25:57;;;;;;;14.13;7.25;;;10.70;99.90;;;;;;5040262;28;20253;-88
2023/01/02 05:28:23;;;;;;;12.18;7.22;;;10.70;99.90;;;;;;5041833;28;20210;-88
2023/01/02 05:30:48;;;;;;;13.85;7.30;;;10.70;99.90;;;;;;5041490;28;20048;-89
2023/01/02 05:33:14;;;;;;;13.60;7.32;;;10.70;99.90;;;;;;5011912;28;20076;-87
2023/01/02 05:35:40;;;;;;;12.95;6.72;;;10.80;99.90;;;;;;5026561;28;20139;-89
2023/01/02 05:38:06;;;;;;;12.35;7.18;;;10.70;99.90;;;;;;5060207;28;20040;-87
2023/01/02 05:40:32;;;;;;;13.07;7.20;;;10.80;99.90;;;;;;5028705;28;20398;-89
2023/01/02 05:42:58;;;;;;;14.82;7.38;;;10.70;99.90;;;;;;5042484;28;20120;-89
2023/01/02 05:45:24;;;;;;;13.73;7.35;;;10.80;99.90;;;;;;5041843;28;20029;-90
2023/01/02 05:47:50;;;;;;;15.35;7.47;;;10.80;99.90;;;;;;5040744;28;20036;-88
2023/01/02 05:50:16;;;;;;;13.30;7.55;;;;;;;;;;5025199;28;20037;-87
2023/01/02 05:52:41;;;;;;;15.38;7.82;;;10.80;99.90;;;;;;5040609;28;20055;-88
2023/01/02 05:55:07;;;;;;;17.08;8.18;;;10.80;99.90;;;;;;5011115;28;20041;-88
2023/01/02 05:57:34;;;;;;;17.45;8.43;;;10.80;99.90;;;;;;5042992;28;20680;-89
2023/01/02 06:00:00;;;;;;;15.65;8.32;;;10.80;99.90;;;;;;5044628;28;20136;-87
2023/01/02 06:02:25;;;;;;;14.93;8.13;;;10.80;99.90;;;;;;5046602;28;20041;-90
2023/01/02 06:04:51;;;;;;;17.02;8.50;;;10.80;99.90;;;;;;5045211;28;20109;-89
2023/01/02 06:07:19;;;;;;;15.60;8.20;;;10.80;99.90;;;;;;5030208;28;20506;-88
2023/01/02 06:09:45;;;;;;;17.95;8.93;;;10.80;99.90;;;;;;5045899;28;20045;-89
2023/01/02 06:12:11;;;;;;;17.50;7.88;;;10.80;99.90;;;;;;5028570;28;20042;-89
2023/01/02 06:14:37;;;;;;;17.45;8.73;;;10.80;99.90;;;;;;5042410;28;20049;-88
2023/01/02 06:17:02;;;;;;;17.02;8.40;;;10.80;99.90;;;;;;5042804;28;20033;-88
2023/01/02 06:19:28;;;;;;;17.90;8.75;;;10.80;99.90;;;;;;5041763;28;20044;-90
2023/01/02 06:21:54;;;;;;;18.25;8.90;;;10.80;99.90;;;;;;5043260;28;20048;-89
2023/01/02 06:24:20;;;;;;;15.73;8.98;;;10.80;99.90;;;;;;5044918;28;20055;-88
2023/01/02 06:26:46;;;;;;;18.08;9.45;;;10.80;99.90;;;;;;5056616;28;20045;-88
2023/01/02 06:29:11;;;;;;;17.65;9.00;;;10.80;99.90;;;;;;5048335;28;20037;-88
2023/01/02 06:31:37;;;;;;;15.88;8.73;;;10.80;99.90;;;;;;5049132;28;20045;-89
2023/01/02 06:34:03;;;;;;;15.45;8.30;;;10.90;99.90;;;;;;5030127;28;20056;-90
2023/01/02 06:36:32;;;;;;;12.88;7.35;;;10.90;99.90;;;;;;5027355;28;20041;-88
2023/01/02 06:38:57;;;;;;;13.93;6.70;;;10.90;99.90;;;;;;5045245;28;20055;-88
2023/01/02 06:41:23;;;;;;;11.15;5.38;;;10.90;99.90;;;;;;5046726;28;20037;-89
2023/01/02 06:43:51;;;;;;;8.60;3.70;;;10.90;99.90;;;;;;5036204;28;20452;-87
2023/01/02 06:46:19;;;;;;;7.88;2.97;;;10.90;99.90;;;;;;5039145;28;20037;-89
2023/01/02 06:48:45;;;;;;;7.85;2.70;;;10.90;99.90;;;;;;5026871;28;20055;-89
2023/01/02 06:51:14;;;;;;;7.13;2.80;;;10.90;99.90;;;;;;5063267;28;20064;-88
2023/01/02 06:53:40;;;;;;;6.25;2.55;;;10.80;99.90;;;;;;5032202;28;20045;-90
2023/01/02 06:56:07;;;;;;;6.80;2.80;;;10.90;99.90;;;;;;5031856;28;20045;-89
2023/01/02 06:58:35;;;;;;;7.80;2.90;;;10.90;99.90;;;;;;5046675;28;20052;-89
2023/01/02 07:01:15;;;;;;;7.40;3.20;;;10.80;99.90;;;;;;5048338;28;20056;-89
2023/01/02 07:03:41;;;;;;;9.23;3.13;;;10.80;99.90;;;;;;5046021;28;20037;-89
2023/01/02 07:06:19;;;;;;;8.27;3.22;;;10.80;99.90;;;;;;5048399;28;20287;-88
2023/01/02 07:08:45;;;;;;;8.25;3.35;;;10.80;99.90;;;;;;5062660;28;20494;-89
2023/01/02 07:11:20;;;;;;;8.25;3.55;;;10.80;99.90;;;;;;5045650;28;20040;-90
2023/01/02 07:13:46;;;;;;;8.43;3.70;;;10.80;99.90;;;;;;5033098;28;20055;-89
2023/01/02 07:16:14;;;;;;;8.75;4.10;;;10.80;99.90;;;;;;5064416;28;20043;-89
2023/01/02 07:18:40;;;;;;;8.25;3.58;;;10.80;99.90;;;;;;5029150;28;20128;-88
2023/01/02 07:21:11;;;;;;;8.90;4.00;;;10.70;99.90;;;;;;5029289;28;20053;-88
2023/01/02 07:23:37;;;;;;;10.80;4.82;;;10.70;99.90;;;;;;5044684;28;20049;-87
2023/01/02 07:26:05;;;;;;;9.25;4.50;;;10.70;99.90;;;;;;5028179;28;20099;-88
2023/01/02 07:28:31;;;;;;;8.25;3.03;;;10.60;99.90;;;;;;5039490;28;20037;-89
2023/01/02 07:31:00;;;;;;;8.23;3.50;;;10.40;99.90;;;;;;5040538;28;20292;-88
2023/01/02 07:33:30;;;;;;;9.15;3.70;;;10.20;99.90;;;;;;5042288;28;20733;-88
2023/01/02 07:36:00;;;;;;;9.85;3.40;;;10.00;99.90;;;;;;5045139;28;20103;-89
2023/01/02 07:38:26;;;;;;;7.80;2.95;;;9.80;99.90;;;;;;5047911;28;20757;-89
2023/01/02 07:40:52;;;;;;;7.05;2.60;;;9.70;99.90;;;;;;5047840;28;20029;-89
2023/01/02 07:43:19;;;;;;;8.93;2.80;;;9.60;99.90;;;;;;5045399;28;20059;-89
2023/01/02 07:45:44;;;;;;;7.55;2.38;;;9.50;99.90;;;;;;5047152;28;20087;-89
2023/01/02 07:48:10;;;;;;;5.57;1.90;;;9.40;99.90;;;;;;5037956;28;20448;-91
2023/01/02 07:50:36;;;;;;;3.72;1.65;;;9.30;99.90;;;;;;5042049;28;20040;-89
2023/01/02 07:53:02;;;;;;;5.15;1.60;;;9.10;99.90;;;;;;5027594;28;20068;-89
2023/01/02 07:55:27;;;;;;;4.93;1.40;;;9.00;99.90;;;;;;5046007;28;20079;-89
2023/01/02 07:57:53;;;;;;;5.65;1.38;;;8.90;99.90;;;;;;5029481;28;20102;-89
2023/01/02 08:00:19;;;;;;;4.05;1.35;;;9.40;99.90;;;;;;5045316;28;20111;-88
2023/01/02 08:02:48;;;;;;;4.68;1.58;;;8.80;99.90;;;;;;5044484;28;20033;-89
2023/01/02 08:05:15;;;;;;;4.60;1.60;;;8.70;99.90;;;;;;5043787;28;20123;-89
2023/01/02 08:07:42;;;;;;;3.97;1.48;;;8.70;99.90;;;;;;5037146;28;20033;-88
2023/01/02 08:10:07;;;;;;;3.58;1.40;;;8.60;99.90;;;;;;5042682;28;20037;-89
2023/01/02 08:12:33;;;;;;;5.47;1.70;;;8.60;99.90;;;;;;5027109;28;20047;-89
2023/01/02 08:14:59;;;;;;;6.40;1.80;;;8.60;99.90;;;;;;5042022;28;20045;-89
2023/01/02 08:17:24;;;;;;;3.83;1.60;;;8.50;99.90;;;;;;5030116;28;20064;-90
2023/01/02 08:19:50;;;;;;;6.53;2.00;;;8.90;99.90;;;;;;5027365;28;20060;-89
2023/01/02 08:22:16;;;;;;;4.53;1.40;;;8.50;99.90;;;;;;5023897;28;20069;-89
2023/01/02 08:24:42;;;;;;;7.88;2.00;;;8.50;99.90;;;;;;5043868;28;20087;-89
2023/01/02 08:27:07;;;;;;;6.90;1.90;;;8.50;99.90;;;;;;5042878;28;20040;-89
2023/01/02 08:29:33;;;;;;;6.53;1.60;;;8.50;99.90;;;;;;5042301;28;20486;-89
2023/01/02 08:31:59;;;;;;;8.18;1.60;;;8.50;99.90;;;;;;5022967;28;20087;-90
2023/01/02 08:34:25;;;;;;;5.32;1.63;;;8.50;99.90;;;;;;5028653;28;20065;-89
2023/01/02 08:36:51;;;;;;;5.85;1.80;;;8.80;99.90;;;;;;5050060;28;20063;-90
2023/01/02 08:39:17;;;;;;;9.73;2.15;;;8.70;99.90;;;;;;5011467;28;20048;-90
2023/01/02 08:41:42;;;;;;;8.45;1.75;;;8.50;99.90;;;;;;5045335;28;20439;-90
2023/01/02 08:44:08;;;;;;;6.22;1.80;;;8.50;99.90;;;;;;5027697;28;20564;-89
2023/01/02 08:46:35;;;;;;;7.43;2.03;;;8.50;99.90;;;;;;5045954;28;20045;-90
2023/01/02 08:49:01;;;;;;;7.47;2.25;;;8.50;99.90;;;;;;5047037;28;20037;-90
2023/01/02 08:51:27;;;;;;;6.50;2.10;;;8.50;99.90;;;;;;5041936;28;20041;-90
2023/01/02 08:53:53;;;;;;;6.78;1.75;;;8.50;99.90;;;;;;5023673;28;20041;-88
2023/01/02 08:56:24;;;;;;;5.60;1.77;;;8.50;99.90;;;;;;5010159;28;20037;-88
2023/01/02 08:58:58;;;;;;;6.82;2.00;;;8.50;99.90;;;;;;5047180;28;20044;-88
2023/01/02 09:01:25;;;;;;;7.90;2.00;;;8.50;99.90;;;;;;5042971;28;20118;-87
2023/01/02 09:03:52;;;;;;;6.70;1.88;;;8.50;99.90;;;;;;5043727;28;20054;-88
2023/01/02 09:06:19;;;;;;;5.20;1.73;;;8.50;99.90;;;;;;5044648;28;20513;-89
2023/01/02 09:08:45;;;;;;;5.53;1.90;;;8.60;99.90;;;;;;5045094;28;20033;-88
2023/01/02 09:11:17;;;;;;;7.35;2.00;;;8.60;99.90;;;;;;5027128;28;20310;-89
2023/01/02 09:13:43;;;;;;;7.70;2.10;;;8.90;99.90;;;;;;5048171;28;20436;-88
2023/01/02 09:16:09;;;;;;;9.52;2.30;;;8.60;99.90;;;;;;5026947;28;20076;-88
2023/01/02 09:18:37;;;;;;;10.13;2.42;;;8.60;99.90;;;;;;5040838;28;20102;-88
2023/01/02 09:21:03;;;;;;;7.80;2.10;;;9.30;99.90;;;;;;5024744;28;20049;-88
2023/01/02 09:23:30;;;;;;;8.13;2.50;;;8.60;99.90;;;;;;5043861;28;20120;-89
2023/01/02 09:25:58;;;;;;;8.27;2.20;;;8.50;99.90;;;;;;5045016;28;20049;-87
2023/01/02 09:28:23;;;;;;;7.95;2.33;;;8.60;99.90;;;;;;5028867;28;20072;-88
2023/01/02 09:30:49;;;;;;;8.20;2.20;;;8.60;99.90;;;;;;5044743;28;20065;-89
2023/01/02 09:33:15;;;;;;;8.18;2.40;;;9.40;99.90;;;;;;5012485;28;20106;-90
2023/01/02 09:35:41;;;;;;;8.35;2.30;;;8.60;99.90;;;;;;5044281;28;20036;-89
2023/01/02 09:38:06;;;;;;;6.32;2.03;;;8.60;99.90;;;;;;5043081;28;20410;-88
2023/01/02 09:40:34;;;;;;;7.90;2.00;;;8.60;99.90;;;;;;5025644;28;20094;-88
2023/01/02 09:43:01;;;;;;;7.40;1.90;;;8.60;99.90;;;;;;5043932;28;20048;-87
2023/01/02 09:45:28;;;;;;;7.32;2.00;;;8.70;99.90;;;;;;5044409;28;20426;-88
2023/01/02 09:47:57;;;;;;;8.30;2.40;;;8.70;99.90;;;;;;5044739;28;20041;-88
2023/01/02 09:50:29;;;;;;;6.68;2.33;;;8.70;99.90;;;;;;5042782;28;20049;-88
2023/01/02 09:52:57;;;;;;;8.23;2.15;;;8.70;99.90;;;;;;5026034;28;20041;-87
2023/01/02 09:55:53;;;;;;;7.88;2.20;;;8.70;99.90;;;;;;5016619;28;20575;-89
2023/01/02 09:58:31;;;;;;;5.57;1.90;;;8.70;99.90;;;;;;5027279;28;20045;-88
2023/01/02 10:00:58;;;;;;;7.50;2.05;;;8.70;99.90;;;;;;5041885;28;20674;-88
2023/01/02 10:03:42;;;;;;;6.60;1.98;;;8.70;99.90;;;;;;5023938;28;20131;-88
2023/01/02 10:06:21;;;;;;;8.57;2.22;;;8.70;99.90;;;;;;5022032;28;20068;-88
2023/01/02 10:09:21;;;;;;;6.63;2.03;;;8.70;99.90;;;;;;5042505;28;20041;-89
2023/01/02 10:11:52;;;;;;;8.60;2.50;;;8.80;99.90;;;;;;5043169;28;20069;-88
2023/01/02 10:14:31;;;;;;;6.72;2.10;;;8.80;99.90;;;;;;5047907;28;20110;-88
2023/01/02 10:16:59;;;;;;;10.20;2.53;;;8.80;99.90;;;;;;5028574;28;20036;-89
2023/01/02 10:19:25;;;;;;;6.25;1.95;;;8.80;99.90;;;;;;5030074;28;20611;-87
2023/01/02 10:21:55;;;;;;;8.50;2.50;;;8.80;99.90;;;;;;5028977;28;20123;-89
2023/01/02 10:24:56;;;;;;;8.02;2.13;;;8.80;99.90;;;;;;5026173;28;20079;-88
2023/01/02 10:27:30;;;;;;;7.18;2.25;;;8.80;99.90;;;;;;5039043;28;20120;-89
2023/01/02 10:30:06;;;;;;;7.05;2.20;;;8.70;99.90;;;;;;5059944;28;20113;-86
2023/01/02 10:32:34;;;;;;;6.55;2.17;;;8.70;99.90;;;;;;5047822;28;20079;-88
2023/01/02 10:35:05;;;;;;;7.82;2.53;;;9.50;99.90;;;;;;5043517;28;20047;-88
2023/01/02 10:37:33;;;;;;;8.75;2.67;;;8.70;99.90;;;;;;5041551;28;20041;-87
2023/01/02 10:39:59;;;;;;;7.75;2.58;;;9.10;99.90;;;;;;5028567;28;20053;-87
2023/01/02 10:42:25;;;;;;;8.18;2.50;;;;;;;;;;5021587;28;20056;-88
2023/01/02 10:44:51;;;;;;;8.30;2.40;;;8.60;99.90;;;;;;5045533;28;20109;-87
2023/01/02 10:47:32;;;;;;;7.45;2.38;;;8.60;99.90;;;;;;5030089;28;20141;-88
2023/01/02 10:49:59;;;;;;;8.25;2.60;;;8.70;99.90;;;;;;5046048;28;20041;-88
2023/01/02 10:52:32;;;;;;;8.35;2.90;;;8.70;99.90;;;;;;5048458;28;20100;-88
2023/01/02 10:54:59;;;;;;;7.28;2.60;;;8.60;99.90;;;;;;5040859;28;20221;-88
2023/01/02 10:57:31;;;;;;;7.80;2.63;;;8.70;99.90;;;;;;5032767;28;20484;-88
2023/01/02 10:59:59;;;;;;;7.60;2.50;;;8.70;99.90;;;;;;5026560;28;20045;-90
2023/01/02 11:02:35;;;;;;;9.38;2.70;;;8.70;99.90;;;;;;5048240;28;20037;-89
2023/01/02 11:05:02;;;;;;;6.78;2.38;;;8.70;99.90;;;;;;5044375;28;20626;-86
2023/01/02 11:07:34;;;;;;;6.43;2.10;;;8.80;99.90;;;;;;5039567;28;20146;-89
2023/01/02 11:10:00;;;;;;;7.90;2.00;;;8.80;99.90;;;;;;5046216;28;20121;-90
2023/01/02 11:12:26;;;;;;;6.38;2.10;;;8.80;99.90;;;;;;5030214;28;20498;-89
2023/01/02 11:14:52;;;;;;;7.82;2.40;;;8.80;99.90;;;;;;5046299;28;20059;-88
2023/01/02 11:17:20;;;;;;;6.28;2.08;;;8.80;99.90;;;;;;5044701;28;20049;-89
2023/01/02 11:19:55;;;;;;;8.57;2.70;;;8.80;99.90;;;;;;5023011;28;20053;-88
2023/01/02 11:22:34;;;;;;;7.18;2.63;;;8.80;99.90;;;;;;5044931;28;20047;-89
2023/01/02 11:25:04;;;;;;;8.68;2.65;;;8.90;99.90;;;;;;5045288;28;20126;-87
2023/01/02 11:27:32;;;;;;;10.40;2.55;;;8.90;99.90;;;;;;5039191;28;20505;-88
2023/01/02 11:29:58;;;;;;;7.93;2.63;;;9.00;99.90;;;;;;5042939;28;20071;-87
2023/01/02 11:32:37;;;;;;;7.93;2.20;;;9.00;99.90;;;;;;5022397;28;20056;-88
2023/01/02 11:35:04;;;;;;;6.80;2.15;;;9.00;99.90;;;;;;5038537;28;20045;-87
2023/01/02 11:37:30;;;;;;;7.32;2.30;;;9.10;99.90;;;;;;5038447;28;20522;-86
2023/01/02 11:39:59;;;;;;;6.20;2.10;;;9.10;99.90;;;;;;5022501;28;20052;-88
2023/01/02 11:45:19;;;;;;;6.50;2.03;;;9.10;99.90;;;;;;5042512;28;20036;-86
2023/01/02 11:47:54;;;;;;;10.60;2.60;;;9.10;99.90;;;;;;5010518;28;20762;-87
2023/01/02 11:50:28;;;;;;;7.03;2.03;;;9.10;99.90;;;;;;5041114;28;20313;-87
2023/01/02 11:53:17;;;;;;;8.25;2.03;;;9.10;99.90;;;;;;5037945;28;20052;-87
2023/01/02 11:56:07;;;;;;;7.85;2.17;;;9.00;99.90;;;;;;5014275;28;20049;-87
2023/01/02 11:58:42;;;;;;;8.02;2.30;;;9.10;99.90;;;;;;5043275;28;20045;-87
2023/01/02 12:01:36;;;;;;;6.82;2.20;;;9.10;99.90;;;;;;5043041;28;20041;-88
2023/01/02 12:04:05;;;;;;;10.52;2.00;;;9.10;99.90;;;;;;5046032;28;20041;-88
2023/01/02 12:07:00;;;;;;;7.45;2.20;;;9.10;99.90;;;;;;5006422;28;20410;-88
2023/01/02 12:09:40;;;;;;;11.18;2.50;;;9.10;99.90;;;;;;5045136;28;20041;-88
2023/01/02 12:12:15;;;;;;;14.57;2.28;;;9.20;99.90;;;;;;5047233;28;20041;-89
2023/01/02 12:15:05;;;;;;;9.65;2.70;;;9.60;99.90;;;;;;5063556;28;20045;-88
2023/01/02 12:17:50;;;;;;;10.18;2.53;;;9.20;99.90;;;;;;5046602;28;20430;-88
2023/01/02 12:20:23;;;;;;;9.43;2.40;;;9.20;99.90;;;;;;5029188;28;20049;-88
2023/01/02 12:22:56;;;;;;;;;;;9.20;99.90;;;;;;5045140;28;20114;-87
2023/01/02 12:25:33;;;;;;;11.85;2.22;;;8.50;99.90;;;;;;5030087;28;19921;-89
2023/01/02 12:28:30;;;;;;;9.32;2.45;;;9.10;99.90;;;;;;5042378;28;20041;-88
2023/01/02 12:31:30;;;;;;;9.95;2.40;;;9.20;99.90;;;;;;5042824;28;20486;-88
2023/01/02 12:34:26;;;;;;;10.35;2.45;;;9.10;99.90;;;;;;5045301;28;20037;-88
2023/01/02 12:37:04;;;;;;;9.73;2.53;;;9.10;99.90;;;;;;5043874;28;20033;-89
2023/01/02 12:40:02;;;;;;;10.13;2.15;;;9.00;99.90;;;;;;5044359;28;20575;-88
2023/01/02 12:42:39;;;;;;;9.13;2.17;;;9.00;99.90;;;;;;5032414;28;20499;-88
2023/01/02 12:45:24;;;;;;;7.45;1.92;;;9.00;99.90;;;;;;5046580;28;20076;-88
2023/01/02 12:48:00;;;;;;;9.57;2.10;;;8.90;99.90;;;;;;5046057;28;20062;-87
2023/01/02 12:51:11;;;;;;;11.10;2.13;;;9.00;99.90;;;;;;5044203;28;20112;-88
2023/01/02 12:54:04;;;;;;;10.45;2.10;;;9.00;99.90;;;;;;5044056;28;20051;-87
2023/01/02 12:56:37;;;;;;;;;;;9.10;99.90;;;;;;5027671;28;20041;-88
2023/01/02 12:59:40;;;;;;;12.73;2.22;;;9.00;99.90;;;;;;5043746;28;19990;-88
2023/01/02 13:02:25;;;;;;;9.40;2.28;;;9.00;99.90;;;;;;5059684;28;20037;-88
2023/01/02 13:04:55;;;;;;;8.85;2.05;;;9.00;99.90;;;;;;5042968;28;20501;-88
2023/01/02 13:07:30;;;;;;;14.27;2.75;;;9.00;99.90;;;;;;5029659;28;20041;-88
2023/01/02 13:09:59;;;;;;;13.65;2.30;;;9.00;99.90;;;;;;5040955;28;20045;-89
2023/01/02 13:12:28;;;;;;;10.18;2.25;;;9.00;99.90;;;;;;5029974;28;20466;-88
2023/01/02 13:15:08;;;;;;;13.60;2.08;;;9.00;99.90;;;;;;5044849;28;20047;-88